ESOW/VST METAR and TAF weather

Enter ICAO airport designator
Station Type Date Time Source
ESOW METAR 2020/09/19 18:50 UTC NOAA

ESOW 191850Z AUTO 36002KT 9999 NCD 06/03 Q1024


Station Type Date Time Source
ESOW Decoded METAR 2020/09/19 18:50 UTC NOAA

Vasteras / Hasslo, Sweden (ESOW) 59-35N 016-38E 31M
Sep 19, 2020 - 02:50 PM EDT / 2020.09.19 1850 UTC
Wind: from the N (360 degrees) at 2 MPH (2 KT):0
Visibility: greater than 7 mile(s):0
Temperature: 42 F (6 C)
Dew Point: 37 F (3 C)
Relative Humidity: 81%
Pressure (altimeter): 30.24 in. Hg (1024 hPa)
ob: ESOW 191850Z AUTO 36002KT 9999 NCD 06/03 Q1024
cycle: 19

Station Type Date Time Source
ESOW TAF 2018/11/18 12:33 UTC NOAA

TAF ESOW 181130Z 1812/1914 02015KT 9999 BKN020
TEMPO 1812/1814 02015G25KT

Example: see airport list